createdAt,value
2018-01-11T00:00:49.530Z,6.46
2018-01-11T00:01:48.734Z,6.44
2018-01-11T00:02:48.731Z,6.56
2018-01-11T00:03:48.221Z,6.42
2018-01-11T00:04:48.701Z,6.45
2018-01-11T00:05:48.451Z,6.48
2018-01-11T00:06:48.700Z,6.52
2018-01-11T00:07:48.682Z,6.56
2018-01-11T00:08:48.672Z,6.52
2018-01-11T00:09:48.722Z,6.59
2018-01-11T00:10:48.664Z,6.51
2018-01-11T00:11:48.652Z,6.6
2018-01-11T00:12:48.660Z,6.6
2018-01-11T00:13:48.651Z,6.59
2018-01-11T00:14:48.651Z,6.6
2018-01-11T00:15:48.421Z,6.54
2018-01-11T00:16:48.378Z,6.6
2018-01-11T00:17:48.395Z,6.49
2018-01-11T00:18:48.654Z,6.54
2018-01-11T00:19:48.341Z,6.59
2018-01-11T00:20:48.599Z,6.57
2018-01-11T00:21:48.600Z,6.6
2018-01-11T00:22:48.607Z,6.69
2018-01-11T00:23:48.574Z,6.62
2018-01-11T00:24:48.322Z,6.66
2018-01-11T00:25:48.579Z,6.67
2018-01-11T00:26:48.579Z,6.66
2018-01-11T00:27:48.293Z,6.7
2018-01-11T00:28:48.280Z,6.67
2018-01-11T00:29:48.292Z,6.66
2018-01-11T00:30:48.724Z,6.67
2018-01-11T00:31:48.522Z,6.67
2018-01-11T00:32:48.282Z,6.64
2018-01-11T00:33:48.301Z,6.64
2018-01-11T00:34:48.510Z,6.72
2018-01-11T00:35:48.560Z,6.7
2018-01-11T00:36:48.488Z,6.62
2018-01-11T00:37:48.478Z,6.72
2018-01-11T00:38:48.215Z,6.6
2018-01-11T00:39:48.210Z,6.6
2018-01-11T00:40:48.467Z,6.6
2018-01-11T00:41:48.449Z,6.54
2018-01-11T00:42:48.456Z,6.6
2018-01-11T00:43:48.190Z,6.49
2018-01-11T00:44:48.176Z,6.51
2018-01-11T00:45:48.243Z,6.54
2018-01-11T00:46:48.422Z,6.48
2018-01-11T00:47:48.408Z,6.54
2018-01-11T00:48:47.901Z,6.59
2018-01-11T00:49:48.399Z,6.45
2018-01-11T00:50:48.401Z,6.56
2018-01-11T00:51:48.387Z,6.44
2018-01-11T00:52:48.380Z,6.54
2018-01-11T00:53:47.872Z,6.44
2018-01-11T00:54:48.110Z,6.49
2018-01-11T00:55:48.369Z,6.59
2018-01-11T00:56:48.361Z,6.48
2018-01-11T00:57:48.087Z,6.54
2018-01-11T00:58:48.085Z,6.45
2018-01-11T00:59:48.339Z,6.46
2018-01-11T01:00:50.110Z,6.56
2018-01-11T01:01:48.072Z,6.56
2018-01-11T01:02:48.068Z,6.46
2018-01-11T01:03:48.049Z,6.62
2018-01-11T01:04:48.056Z,6.51
2018-01-11T01:05:48.302Z,6.56
2018-01-11T01:06:48.294Z,6.54
2018-01-11T01:07:48.284Z,6.56
2018-01-11T01:08:48.024Z,6.57
2018-01-11T01:09:48.015Z,6.63
2018-01-11T01:10:48.265Z,6.51
2018-01-11T01:11:48.006Z,6.59
2018-01-11T01:12:47.992Z,6.54
2018-01-11T01:13:48.241Z,6.66
2018-01-11T01:14:47.988Z,6.6
2018-01-11T01:15:47.985Z,6.74
2018-01-11T01:16:48.219Z,6.67
2018-01-11T01:17:47.961Z,6.77
2018-01-11T01:18:47.955Z,6.69
2018-01-11T01:19:48.209Z,6.7
2018-01-11T01:20:48.197Z,6.66
2018-01-11T01:21:48.184Z,6.63
2018-01-11T01:22:47.676Z,6.75
2018-01-11T01:23:47.928Z,6.62
2018-01-11T01:24:48.178Z,6.66
2018-01-11T01:25:48.162Z,6.69
2018-01-11T01:26:48.154Z,6.66
2018-01-11T01:27:48.149Z,6.63
2018-01-11T01:28:47.890Z,6.6
2018-01-11T01:29:48.135Z,6.6
2018-01-11T01:30:48.129Z,6.56
2018-01-11T01:31:48.122Z,6.56
2018-01-11T01:32:47.874Z,6.49
2018-01-11T01:33:48.117Z,6.48
2018-01-11T01:34:47.849Z,6.46
2018-01-11T01:35:48.097Z,6.42
2018-01-11T01:36:48.093Z,6.36
2018-01-11T01:37:47.831Z,6.26
2018-01-11T01:38:48.076Z,6.26
2018-01-11T01:39:47.824Z,6.14
2018-01-11T01:40:47.558Z,6.12
2018-01-11T01:41:47.804Z,6.08
2018-01-11T01:42:47.801Z,5.98
2018-01-11T01:43:48.044Z,5.98
2018-01-11T01:44:48.039Z,5.94
2018-01-11T01:45:48.030Z,5.94
2018-01-11T01:46:47.820Z,5.84
2018-01-11T01:47:48.018Z,5.82
2018-01-11T01:48:47.772Z,5.72
2018-01-11T01:49:47.757Z,5.66
2018-01-11T01:50:48.000Z,5.65
2018-01-11T01:51:47.480Z,5.56
2018-01-11T01:52:47.984Z,5.53
2018-01-11T01:53:47.726Z,5.47
2018-01-11T01:54:47.715Z,5.43
2018-01-11T01:55:47.959Z,5.41
2018-01-11T01:56:47.954Z,5.41
2018-01-11T01:57:47.945Z,5.35
2018-01-11T01:58:47.708Z,5.29
2018-01-11T01:59:47.687Z,5.3
2018-01-11T02:00:47.690Z,5.28
2018-01-11T02:01:51.771Z,5.17
2018-01-11T02:02:47.905Z,5.14
2018-01-11T02:03:47.899Z,5.12
2018-01-11T02:04:47.901Z,5.07
2018-01-11T02:05:47.630Z,5.11
2018-01-11T02:06:47.884Z,5.14
2018-01-11T02:07:47.630Z,5.07
2018-01-11T02:08:47.860Z,4.97
2018-01-11T02:09:47.853Z,4.96
2018-01-11T02:10:47.593Z,4.94
2018-01-11T02:11:47.585Z,4.89
2018-01-11T02:12:47.833Z,4.93
2018-01-11T02:13:47.576Z,4.9
2018-01-11T02:14:47.308Z,4.89
2018-01-11T02:15:47.555Z,4.86
2018-01-11T02:16:49.452Z,4.78
2018-01-11T02:17:47.790Z,4.8
2018-01-11T02:18:47.539Z,4.67
2018-01-11T02:19:47.784Z,4.74
2018-01-11T02:20:47.522Z,4.67
2018-01-11T02:21:47.815Z,4.6
2018-01-11T02:22:47.783Z,4.67
2018-01-11T02:23:47.748Z,4.67
2018-01-11T02:24:47.741Z,4.59
2018-01-11T02:25:47.731Z,4.59
2018-01-11T02:26:47.728Z,4.74
2018-01-11T02:27:47.726Z,4.74
2018-01-11T02:28:47.728Z,4.59
2018-01-11T02:29:47.719Z,4.58
2018-01-11T02:30:47.693Z,4.58
2018-01-11T02:31:47.442Z,4.66
2018-01-11T02:32:47.428Z,4.59
2018-01-11T02:33:47.677Z,4.56
2018-01-11T02:34:47.669Z,4.58
2018-01-11T02:35:47.668Z,4.52
2018-01-11T02:36:47.410Z,4.5
2018-01-11T02:37:47.645Z,4.5
2018-01-11T02:38:47.632Z,4.5
2018-01-11T02:39:47.367Z,4.52
2018-01-11T02:40:47.364Z,4.53
2018-01-11T02:41:47.369Z,4.5
2018-01-11T02:42:47.603Z,4.5
2018-01-11T02:43:47.591Z,4.53
2018-01-11T02:44:47.614Z,4.48
2018-01-11T02:45:47.072Z,4.55
2018-01-11T02:46:47.568Z,4.52
2018-01-11T02:47:47.761Z,4.52
2018-01-11T02:48:47.296Z,4.58
2018-01-11T02:49:47.034Z,4.55
2018-01-11T02:50:47.543Z,4.56
2018-01-11T02:51:47.283Z,4.49
2018-01-11T02:52:47.521Z,4.52
2018-01-11T02:53:47.248Z,4.53
2018-01-11T02:54:47.500Z,4.49
2018-01-11T02:55:47.239Z,4.49
2018-01-11T02:56:47.483Z,4.49
2018-01-11T02:57:47.222Z,4.48
2018-01-11T02:58:47.211Z,4.49
2018-01-11T02:59:46.959Z,4.45
2018-01-11T03:00:47.200Z,4.53
2018-01-11T03:01:47.197Z,4.67
2018-01-11T03:02:50.535Z,4.63
2018-01-11T03:03:47.424Z,4.6
2018-01-11T03:04:47.409Z,4.63
2018-01-11T03:05:47.447Z,4.62
2018-01-11T03:06:47.394Z,4.63
2018-01-11T03:07:47.405Z,4.6
2018-01-11T03:08:47.123Z,4.59
2018-01-11T03:09:47.385Z,4.7
2018-01-11T03:10:47.117Z,4.8
2018-01-11T03:11:47.106Z,4.77
2018-01-11T03:12:47.093Z,4.87
2018-01-11T03:13:47.089Z,4.82
2018-01-11T03:14:47.076Z,4.8
2018-01-11T03:15:47.076Z,4.78
2018-01-11T03:16:47.068Z,4.86
2018-01-11T03:17:47.365Z,4.78
2018-01-11T03:18:47.041Z,4.82
2018-01-11T03:19:47.290Z,4.93
2018-01-11T03:20:47.029Z,4.93
2018-01-11T03:21:47.326Z,4.74
2018-01-11T03:22:47.342Z,4.75
2018-01-11T03:23:47.003Z,4.66
2018-01-11T03:24:47.249Z,4.56
2018-01-11T03:25:47.240Z,4.53
2018-01-11T03:26:46.980Z,4.55
2018-01-11T03:27:47.224Z,4.49
2018-01-11T03:28:46.983Z,4.4
2018-01-11T03:29:46.700Z,4.38
2018-01-11T03:30:46.694Z,4.35
2018-01-11T03:31:47.181Z,4.24
2018-01-11T03:32:48.283Z,4.2
2018-01-11T03:33:46.921Z,4.19
2018-01-11T03:34:47.171Z,4.17
2018-01-11T03:35:47.155Z,4.22
2018-01-11T03:36:47.140Z,4.19
2018-01-11T03:37:46.891Z,4.17
2018-01-11T03:38:47.123Z,4.19
2018-01-11T03:39:47.130Z,4.38
2018-01-11T03:40:47.117Z,4.42
2018-01-11T03:41:47.111Z,4.34
2018-01-11T03:42:47.105Z,4.48
2018-01-11T03:43:46.843Z,4.44
2018-01-11T03:44:47.081Z,4.45
2018-01-11T03:45:47.067Z,4.52
2018-01-11T03:46:46.815Z,4.48
2018-01-11T03:47:47.052Z,4.5
2018-01-11T03:48:47.055Z,4.48
2018-01-11T03:49:47.030Z,4.59
2018-01-11T03:50:46.815Z,4.55
2018-01-11T03:51:47.040Z,4.49
2018-01-11T03:52:47.007Z,4.62
2018-01-11T03:53:46.806Z,4.58
2018-01-11T03:54:46.484Z,4.53
2018-01-11T03:55:46.980Z,4.44
2018-01-11T03:56:46.720Z,4.4
2018-01-11T03:57:46.717Z,4.37
2018-01-11T03:58:46.959Z,4.26
2018-01-11T03:59:46.989Z,4.28
2018-01-11T04:00:46.692Z,4.3
2018-01-11T04:01:46.677Z,4.17
2018-01-11T04:02:46.920Z,4.16
2018-01-11T04:03:46.661Z,4.16
2018-01-11T04:04:46.908Z,4.13
2018-01-11T04:05:46.896Z,4.04
2018-01-11T04:06:46.886Z,4.06
2018-01-11T04:07:46.636Z,4.05
2018-01-11T04:08:46.885Z,4.05
2018-01-11T04:09:46.862Z,4.2
2018-01-11T04:10:46.860Z,4.16
2018-01-11T04:11:46.851Z,4.17
2018-01-11T04:12:46.582Z,4.16
2018-01-11T04:13:46.827Z,4.23
2018-01-11T04:14:46.819Z,4.14
2018-01-11T04:15:46.814Z,4.2
2018-01-11T04:16:46.549Z,4.37
2018-01-11T04:17:46.790Z,4.35
2018-01-11T04:18:47.052Z,4.42
2018-01-11T04:19:46.781Z,4.41
2018-01-11T04:20:46.768Z,4.5
2018-01-11T04:21:46.760Z,4.55
2018-01-11T04:22:46.757Z,4.58
2018-01-11T04:23:46.753Z,4.66
2018-01-11T04:24:46.479Z,4.56
2018-01-11T04:25:46.470Z,4.66
2018-01-11T04:26:46.729Z,4.59
2018-01-11T04:27:46.708Z,4.56
2018-01-11T04:28:46.697Z,4.55
2018-01-11T04:29:46.693Z,4.7
2018-01-11T04:30:46.693Z,4.59
2018-01-11T04:31:46.666Z,4.67
2018-01-11T04:32:46.662Z,4.68
2018-01-11T04:33:47.105Z,4.73
2018-01-11T04:34:46.649Z,4.62
2018-01-11T04:35:46.644Z,4.66
2018-01-11T04:36:46.630Z,4.63
2018-01-11T04:37:46.375Z,4.5
2018-01-11T04:38:46.616Z,4.58
2018-01-11T04:39:46.624Z,4.5
2018-01-11T04:40:46.597Z,4.42
2018-01-11T04:41:46.580Z,4.38
2018-01-11T04:42:46.337Z,4.3
2018-01-11T04:43:46.594Z,4.26
2018-01-11T04:44:46.561Z,4.28
2018-01-11T04:45:46.560Z,4.19
2018-01-11T04:46:46.561Z,4.14
2018-01-11T04:47:46.529Z,4.14
2018-01-11T04:48:47.075Z,4.1
2018-01-11T04:49:46.526Z,4.05
2018-01-11T04:50:46.503Z,4.01
2018-01-11T04:51:46.497Z,3.87
2018-01-11T04:52:46.520Z,3.87
2018-01-11T04:53:46.478Z,3.84
2018-01-11T04:54:46.479Z,3.78
2018-01-11T04:55:46.465Z,3.84
2018-01-11T04:56:46.209Z,3.74
2018-01-11T04:57:46.464Z,3.83
2018-01-11T04:58:46.445Z,3.84
2018-01-11T04:59:46.423Z,3.83
2018-01-11T05:00:46.165Z,3.8
2018-01-11T05:01:46.414Z,3.78
2018-01-11T05:02:46.396Z,3.83
2018-01-11T05:03:46.944Z,3.73
2018-01-11T05:04:45.879Z,3.73
2018-01-11T05:05:46.386Z,3.68
2018-01-11T05:06:46.371Z,3.62
2018-01-11T05:07:46.103Z,3.6
2018-01-11T05:08:46.357Z,3.62
2018-01-11T05:09:46.086Z,3.65
2018-01-11T05:10:46.077Z,3.59
2018-01-11T05:11:46.325Z,3.56
2018-01-11T05:12:46.371Z,3.48
2018-01-11T05:13:46.321Z,3.48
2018-01-11T05:14:46.049Z,3.56
2018-01-11T05:15:46.293Z,3.55
2018-01-11T05:16:46.275Z,3.56
2018-01-11T05:17:46.265Z,3.59
2018-01-11T05:18:48.064Z,3.59
2018-01-11T05:19:46.250Z,3.59
2018-01-11T05:20:46.245Z,3.69
2018-01-11T05:21:46.230Z,3.62
2018-01-11T05:22:46.220Z,3.6
2018-01-11T05:23:46.217Z,3.56
2018-01-11T05:24:46.204Z,3.65
2018-01-11T05:25:45.701Z,3.69
2018-01-11T05:26:45.937Z,3.63
2018-01-11T05:27:45.930Z,3.73
2018-01-11T05:28:46.178Z,3.7
2018-01-11T05:29:46.166Z,3.7
2018-01-11T05:30:46.146Z,3.73
2018-01-11T05:31:46.143Z,3.77
2018-01-11T05:32:46.138Z,3.76
2018-01-11T05:33:46.119Z,3.81
2018-01-11T05:34:45.868Z,3.86
2018-01-11T05:35:46.104Z,3.87
2018-01-11T05:36:46.091Z,3.99
2018-01-11T05:37:45.832Z,4.12
2018-01-11T05:38:46.081Z,4.14
2018-01-11T05:39:45.569Z,4.24
2018-01-11T05:40:46.068Z,4.34
2018-01-11T05:41:46.061Z,4.49
2018-01-11T05:42:46.043Z,4.53
2018-01-11T05:43:45.782Z,4.55
2018-01-11T05:44:46.021Z,4.55
2018-01-11T05:45:46.023Z,4.55
2018-01-11T05:46:46.012Z,4.5
2018-01-11T05:47:45.993Z,4.49
2018-01-11T05:48:45.985Z,4.58
2018-01-11T05:49:45.723Z,4.5
2018-01-11T05:50:45.711Z,4.45
2018-01-11T05:51:45.712Z,4.42
2018-01-11T05:52:45.960Z,4.35
2018-01-11T05:53:45.941Z,4.4
2018-01-11T05:54:45.939Z,4.42
2018-01-11T05:55:45.669Z,4.4
2018-01-11T05:56:45.415Z,4.32
2018-01-11T05:57:45.660Z,4.32
2018-01-11T05:58:45.405Z,4.24
2018-01-11T05:59:45.389Z,4.31
2018-01-11T06:00:45.643Z,4.19
2018-01-11T06:01:45.368Z,4.23
2018-01-11T06:02:45.612Z,4.23
2018-01-11T06:03:45.863Z,4.16
2018-01-11T06:04:49.000Z,4.31
2018-01-11T06:05:45.836Z,4.31
2018-01-11T06:06:45.582Z,4.32
2018-01-11T06:07:45.563Z,4.41
2018-01-11T06:08:45.808Z,4.52
2018-01-11T06:09:45.863Z,4.53
2018-01-11T06:10:45.798Z,4.49
2018-01-11T06:11:45.782Z,4.52
2018-01-11T06:12:45.782Z,4.49
2018-01-11T06:13:45.779Z,4.49
2018-01-11T06:14:45.779Z,4.58
2018-01-11T06:15:45.748Z,4.58
2018-01-11T06:16:45.785Z,4.62
2018-01-11T06:17:45.729Z,4.6
2018-01-11T06:18:45.482Z,4.55
2018-01-11T06:19:47.873Z,4.5
2018-01-11T06:20:45.477Z,4.55
2018-01-11T06:21:45.442Z,4.52
2018-01-11T06:22:45.693Z,4.5
2018-01-11T06:23:45.679Z,4.58
2018-01-11T06:24:45.422Z,4.56
2018-01-11T06:25:45.664Z,4.5
2018-01-11T06:26:45.406Z,4.49
2018-01-11T06:27:45.644Z,4.5
2018-01-11T06:28:45.642Z,4.55
2018-01-11T06:29:45.631Z,4.5
2018-01-11T06:30:45.109Z,4.53
2018-01-11T06:31:45.608Z,4.49
2018-01-11T06:32:45.599Z,4.5
2018-01-11T06:33:45.617Z,4.53
2018-01-11T06:34:45.587Z,4.59
2018-01-11T06:35:45.574Z,4.62
2018-01-11T06:36:45.563Z,4.56
2018-01-11T06:37:45.567Z,4.63
2018-01-11T06:38:45.543Z,4.66
2018-01-11T06:39:45.532Z,4.67
2018-01-11T06:40:45.535Z,4.66
2018-01-11T06:41:45.520Z,4.7
2018-01-11T06:42:45.523Z,4.66
2018-01-11T06:43:45.251Z,4.66
2018-01-11T06:44:45.494Z,4.5
2018-01-11T06:45:45.494Z,4.59
2018-01-11T06:46:45.226Z,4.58
2018-01-11T06:47:45.474Z,4.58
2018-01-11T06:48:44.963Z,4.49
2018-01-11T06:49:45.451Z,4.48
2018-01-11T06:50:45.204Z,4.53
2018-01-11T06:51:45.433Z,4.49
2018-01-11T06:52:45.422Z,4.49
2018-01-11T06:53:45.411Z,4.56
2018-01-11T06:54:45.158Z,4.52
2018-01-11T06:55:45.146Z,4.55
2018-01-11T06:56:45.392Z,4.52
2018-01-11T06:57:45.441Z,4.49
2018-01-11T06:58:45.374Z,4.5
2018-01-11T06:59:45.362Z,4.53
2018-01-11T07:00:45.951Z,4.59
2018-01-11T07:01:45.118Z,4.5
2018-01-11T07:02:45.350Z,4.59
2018-01-11T07:03:45.073Z,4.56
2018-01-11T07:04:45.322Z,4.6
2018-01-11T07:05:45.565Z,4.63
2018-01-11T07:06:45.308Z,4.66
2018-01-11T07:07:45.339Z,4.6
2018-01-11T07:08:45.286Z,4.62
2018-01-11T07:09:45.275Z,4.63
2018-01-11T07:10:45.272Z,4.6
2018-01-11T07:11:45.308Z,4.62
2018-01-11T07:12:45.249Z,4.63
2018-01-11T07:13:45.249Z,4.62
2018-01-11T07:14:44.987Z,4.67
2018-01-11T07:15:45.234Z,4.68
2018-01-11T07:16:45.215Z,4.71
2018-01-11T07:17:45.217Z,4.74
2018-01-11T07:18:44.942Z,4.7
2018-01-11T07:19:44.942Z,4.59
2018-01-11T07:20:45.975Z,4.62
2018-01-11T07:21:45.186Z,4.73
2018-01-11T07:22:44.920Z,4.77
2018-01-11T07:23:45.158Z,4.75
2018-01-11T07:24:45.141Z,4.77
2018-01-11T07:25:45.132Z,4.87
2018-01-11T07:26:44.881Z,4.8
2018-01-11T07:27:44.863Z,4.84
2018-01-11T07:28:44.878Z,4.82
2018-01-11T07:29:45.103Z,4.87
2018-01-11T07:30:44.839Z,4.89
2018-01-11T07:31:45.100Z,4.78
2018-01-11T07:32:45.085Z,4.67
2018-01-11T07:33:44.820Z,4.66
2018-01-11T07:34:45.064Z,4.73
2018-01-11T07:35:45.051Z,4.74
2018-01-11T07:36:44.795Z,4.71
2018-01-11T07:37:45.036Z,4.75
2018-01-11T07:38:45.031Z,4.73
2018-01-11T07:39:45.025Z,4.7
2018-01-11T07:40:45.031Z,4.7
2018-01-11T07:41:44.748Z,4.71
2018-01-11T07:42:44.736Z,4.73
2018-01-11T07:43:44.984Z,4.75
2018-01-11T07:44:44.974Z,4.82
2018-01-11T07:45:44.961Z,4.75
2018-01-11T07:46:44.707Z,4.74
2018-01-11T07:47:44.957Z,4.78
2018-01-11T07:48:44.937Z,4.78
2018-01-11T07:49:44.929Z,4.8
2018-01-11T07:50:44.937Z,4.7
2018-01-11T07:51:44.987Z,4.74
2018-01-11T07:52:44.911Z,4.77
2018-01-11T07:53:44.904Z,4.77
2018-01-11T07:54:44.900Z,4.73
2018-01-11T07:55:44.880Z,4.67
2018-01-11T07:56:44.616Z,4.74
2018-01-11T07:57:44.860Z,4.78
2018-01-11T07:58:44.353Z,4.75
2018-01-11T07:59:44.846Z,4.8
2018-01-11T08:00:44.835Z,4.71
2018-01-11T08:01:44.843Z,4.74
2018-01-11T08:02:44.830Z,4.6
2018-01-11T08:03:44.810Z,4.73
2018-01-11T08:04:44.813Z,4.74
2018-01-11T08:05:44.555Z,4.73
2018-01-11T08:06:44.791Z,4.68
2018-01-11T08:07:44.780Z,4.59
2018-01-11T08:08:44.786Z,4.63
2018-01-11T08:09:44.515Z,4.62
2018-01-11T08:10:44.761Z,4.6
2018-01-11T08:11:44.752Z,4.73
2018-01-11T08:12:44.779Z,4.74
2018-01-11T08:13:44.732Z,4.73
2018-01-11T08:14:44.770Z,4.62
2018-01-11T08:15:44.469Z,4.66
2018-01-11T08:16:44.708Z,4.68
2018-01-11T08:17:44.708Z,4.68
2018-01-11T08:18:44.684Z,4.67
2018-01-11T08:19:44.680Z,4.62
2018-01-11T08:20:44.672Z,4.56
2018-01-11T08:21:46.214Z,4.56
2018-01-11T08:22:44.654Z,4.55
2018-01-11T08:23:44.403Z,4.59
2018-01-11T08:24:44.638Z,4.56
2018-01-11T08:25:44.686Z,4.53
2018-01-11T08:26:44.375Z,4.59
2018-01-11T08:27:44.613Z,4.5
2018-01-11T08:28:44.612Z,4.63
2018-01-11T08:29:44.343Z,4.6
2018-01-11T08:30:44.585Z,4.62
2018-01-11T08:31:44.580Z,4.63
2018-01-11T08:32:44.575Z,4.63
2018-01-11T08:33:44.324Z,4.73
2018-01-11T08:34:44.302Z,4.73
2018-01-11T08:35:44.554Z,4.74
2018-01-11T08:37:44.537Z,4.6
2018-01-11T08:38:44.525Z,4.63
2018-01-11T08:39:44.514Z,4.63
2018-01-11T08:40:44.261Z,4.58
2018-01-11T08:41:44.247Z,4.7
2018-01-11T08:42:44.493Z,4.7
2018-01-11T08:43:44.480Z,4.67
2018-01-11T08:44:44.475Z,4.63
2018-01-11T08:45:44.461Z,4.63
2018-01-11T08:46:44.456Z,4.66
2018-01-11T08:47:44.507Z,4.74
2018-01-11T08:48:44.220Z,4.82
2018-01-11T08:49:44.435Z,4.74
2018-01-11T08:50:44.433Z,4.82
2018-01-11T08:51:44.413Z,4.75
2018-01-11T08:52:44.403Z,4.87
2018-01-11T08:53:43.891Z,4.84
2018-01-11T08:54:44.384Z,4.9
2018-01-11T08:55:44.377Z,4.82
2018-01-11T08:56:44.372Z,4.89
2018-01-11T08:57:44.369Z,4.89
2018-01-11T08:58:44.352Z,5
2018-01-11T08:59:44.352Z,5
2018-01-11T09:00:44.089Z,5.05
2018-01-11T09:01:44.334Z,5.11
2018-01-11T09:02:44.088Z,5.2
2018-01-11T09:03:44.070Z,5.25
2018-01-11T09:04:44.068Z,5.33
2018-01-11T09:05:44.049Z,5.33
2018-01-11T09:06:45.402Z,5.51
2018-01-11T09:07:44.047Z,5.53
2018-01-11T09:08:44.279Z,5.54
2018-01-11T09:09:44.272Z,5.61
2018-01-11T09:10:44.262Z,5.66
2018-01-11T09:11:44.252Z,5.64
2018-01-11T09:12:44.245Z,5.73
2018-01-11T09:13:44.236Z,5.76
2018-01-11T09:14:44.239Z,5.84
2018-01-11T09:15:43.985Z,5.91
2018-01-11T09:16:44.222Z,5.93
2018-01-11T09:17:43.959Z,5.91
2018-01-11T09:18:43.997Z,5.98
2018-01-11T09:19:44.305Z,5.98
2018-01-11T09:20:44.189Z,5.99
2018-01-11T09:21:44.179Z,6.01
2018-01-11T09:22:44.174Z,6.11
2018-01-11T09:23:44.169Z,6.12
2018-01-11T09:24:44.160Z,6.12
2018-01-11T09:25:44.150Z,6.22
2018-01-11T09:26:44.161Z,6.19
2018-01-11T09:27:44.246Z,6.09
2018-01-11T09:28:44.139Z,6.19
2018-01-11T09:29:43.633Z,6.11
2018-01-11T09:30:44.121Z,6.2
2018-01-11T09:31:44.121Z,6.17
2018-01-11T09:32:43.851Z,6.2
2018-01-11T09:33:43.601Z,6.22
2018-01-11T09:34:44.096Z,6.3
2018-01-11T09:35:44.086Z,6.26
2018-01-11T09:36:44.095Z,6.26
2018-01-11T09:37:43.835Z,6.28
2018-01-11T09:38:44.073Z,6.31
2018-01-11T09:39:44.126Z,6.39
2018-01-11T09:40:44.047Z,6.35
2018-01-11T09:41:43.787Z,6.41
2018-01-11T09:42:44.039Z,6.33
2018-01-11T09:43:44.032Z,6.49
2018-01-11T09:44:43.777Z,6.41
2018-01-11T09:45:43.758Z,6.51
2018-01-11T09:46:43.756Z,6.56
2018-01-11T09:47:43.749Z,6.45
2018-01-11T09:48:44.004Z,6.56
2018-01-11T09:49:43.994Z,6.56
2018-01-11T09:50:43.988Z,6.62
2018-01-11T09:51:43.731Z,6.63
2018-01-11T09:52:44.031Z,6.62
2018-01-11T09:53:43.726Z,6.67
2018-01-11T09:54:43.967Z,6.67
2018-01-11T09:55:43.975Z,6.72
2018-01-11T09:56:43.699Z,6.77
2018-01-11T09:57:43.950Z,6.75
2018-01-11T09:58:43.428Z,6.69
2018-01-11T09:59:43.673Z,6.72
2018-01-11T10:00:43.924Z,6.69
2018-01-11T10:01:43.918Z,6.75
2018-01-11T10:02:43.915Z,6.81
2018-01-11T10:03:43.913Z,6.81
2018-01-11T10:04:43.913Z,6.79
2018-01-11T10:05:43.638Z,6.72
2018-01-11T10:06:43.629Z,6.75
2018-01-11T10:07:46.585Z,6.72
2018-01-11T10:08:43.902Z,6.75
2018-01-11T10:09:43.616Z,6.72
2018-01-11T10:10:43.867Z,6.69
2018-01-11T10:11:43.856Z,6.67
2018-01-11T10:12:44.403Z,6.74
2018-01-11T10:13:43.584Z,6.66
2018-01-11T10:14:43.582Z,6.7
2018-01-11T10:15:43.832Z,6.7
2018-01-11T10:16:43.822Z,6.7
2018-01-11T10:17:43.811Z,6.72
2018-01-11T10:18:43.811Z,6.74
2018-01-11T10:19:43.824Z,6.74
2018-01-11T10:20:43.549Z,6.72
2018-01-11T10:21:43.796Z,6.72
2018-01-11T10:22:43.848Z,6.85
2018-01-11T10:53:02.100Z,7.15
2018-01-11T10:54:01.484Z,7.11
2018-01-11T10:55:01.474Z,7.14
2018-01-11T10:56:01.231Z,7.28
2018-01-11T10:57:00.950Z,7.25
2018-01-11T10:58:01.437Z,7.29
2018-01-11T10:59:01.429Z,7.35
2018-01-11T11:00:01.414Z,7.35
2018-01-11T11:01:01.410Z,7.45
2018-01-11T11:02:01.408Z,7.51
2018-01-11T11:03:01.384Z,7.53
2018-01-11T11:04:01.380Z,7.58
2018-01-11T11:05:00.889Z,7.57
2018-01-11T11:06:01.127Z,7.61
2018-01-11T11:07:01.355Z,7.75
2018-01-11T11:08:01.375Z,7.7
2018-01-11T11:09:01.345Z,7.7
2018-01-11T11:10:01.095Z,7.72
2018-01-11T11:11:01.108Z,7.82
2018-01-11T11:12:01.078Z,7.87
2018-01-11T11:13:01.328Z,7.87
2018-01-11T11:14:01.355Z,7.95
2018-01-11T11:15:00.799Z,7.94
2018-01-11T11:16:00.795Z,7.93
2018-01-11T11:17:01.303Z,7.94
2018-01-11T11:18:01.283Z,7.93
2018-01-11T11:19:01.279Z,8.01
2018-01-11T11:20:01.294Z,7.91
2018-01-11T11:21:01.016Z,8.01
2018-01-11T11:22:01.265Z,8.01
2018-01-11T11:23:03.667Z,8.01
2018-01-11T11:24:01.254Z,8.2
2018-01-11T11:25:01.247Z,8.13
2018-01-11T11:26:01.003Z,8.18
2018-01-11T11:27:01.256Z,8.2
2018-01-11T11:28:01.248Z,8.19
2018-01-11T11:29:01.236Z,8.16
2018-01-11T11:30:01.252Z,8.26
2018-01-11T11:31:01.231Z,8.19
2018-01-11T11:32:01.237Z,8.26
2018-01-11T11:33:01.234Z,8.33
2018-01-11T11:34:01.228Z,8.24
2018-01-11T11:35:01.226Z,8.23
2018-01-11T11:36:01.228Z,8.26
2018-01-11T11:37:01.236Z,8.37
2018-01-11T11:38:01.210Z,8.36
2018-01-11T11:39:00.939Z,8.36
2018-01-11T11:40:01.219Z,8.42
2018-01-11T11:41:01.165Z,8.44
2018-01-11T11:42:00.942Z,8.49
2018-01-11T11:43:00.944Z,8.53
2018-01-11T11:44:01.198Z,8.55
2018-01-11T11:45:01.159Z,8.55
2018-01-11T11:46:00.925Z,8.58
2018-01-11T11:47:00.887Z,8.6
2018-01-11T11:48:01.208Z,8.61
2018-01-11T11:49:00.628Z,8.66
2018-01-11T11:50:01.148Z,8.6
2018-01-11T11:51:00.862Z,8.63
2018-01-11T11:52:01.118Z,8.63
2018-01-11T11:53:01.155Z,8.71
2018-01-11T11:54:00.863Z,8.69
2018-01-11T11:55:01.150Z,8.78
2018-01-11T11:56:01.162Z,8.82
2018-01-11T11:57:00.905Z,8.73
2018-01-11T11:58:01.148Z,8.74
2018-01-11T11:59:00.858Z,8.87
2018-01-11T12:00:01.103Z,8.87
2018-01-11T12:01:00.566Z,8.89
2018-01-11T12:02:00.871Z,8.92
2018-01-11T12:03:00.822Z,8.91
2018-01-11T12:04:01.071Z,8.99
2018-01-11T12:05:00.820Z,8.89
2018-01-11T12:06:01.073Z,9.03
2018-01-11T12:07:00.799Z,9.04
2018-01-11T12:08:01.063Z,9.03
2018-01-11T12:09:00.795Z,9.1
2018-01-11T12:10:01.118Z,9.04
2018-01-11T12:11:01.052Z,9.1
2018-01-11T12:12:01.044Z,9.1
2018-01-11T12:13:01.067Z,9.14
2018-01-11T12:14:01.040Z,9.04
2018-01-11T12:15:00.779Z,9.1
2018-01-11T12:16:01.024Z,9.03
2018-01-11T12:17:01.005Z,8.99
2018-01-11T12:18:00.744Z,9.02
2018-01-11T12:19:00.996Z,9.02
2018-01-11T12:20:01.014Z,9.1
2018-01-11T12:21:00.743Z,9.11
2018-01-11T12:22:00.995Z,9.04
2018-01-11T12:23:00.722Z,9.13
2018-01-11T12:24:00.735Z,9.18
2018-01-11T12:25:00.723Z,9.22
2018-01-11T12:26:00.976Z,9.18
2018-01-11T12:27:00.713Z,9.26
2018-01-11T12:28:00.704Z,9.29
2018-01-11T12:29:00.955Z,9.32
2018-01-11T12:30:00.695Z,9.29
2018-01-11T12:31:00.706Z,9.32
2018-01-11T12:32:00.688Z,9.28
2018-01-11T12:33:00.933Z,9.36
2018-01-11T12:34:00.701Z,9.39
2018-01-11T12:35:00.683Z,9.41
2018-01-11T12:36:00.422Z,9.4
2018-01-11T12:37:00.925Z,9.46
2018-01-11T12:38:00.683Z,9.46
2018-01-11T12:39:00.934Z,9.43
2018-01-11T12:40:00.660Z,9.47
2018-01-11T12:41:00.648Z,9.39
2018-01-11T12:42:00.902Z,9.41
2018-01-11T12:43:00.893Z,9.43
2018-01-11T12:44:00.648Z,9.44
2018-01-11T12:45:00.636Z,9.51
2018-01-11T12:46:00.881Z,9.56
2018-01-11T12:47:00.649Z,9.54
2018-01-11T12:48:00.626Z,9.58
2018-01-11T12:49:00.878Z,9.59
2018-01-11T12:50:00.865Z,9.54
2018-01-11T12:51:00.616Z,9.61
2018-01-11T12:52:00.612Z,9.55
2018-01-11T12:53:00.864Z,9.54
2018-01-11T12:54:00.882Z,9.65
2018-01-11T12:55:00.849Z,9.64
2018-01-11T12:56:00.845Z,9.65
2018-01-11T12:57:00.835Z,9.72
2018-01-11T12:58:00.832Z,9.77
2018-01-11T12:59:00.840Z,9.76
2018-01-11T13:00:00.833Z,9.77
2018-01-11T13:01:00.568Z,9.8
2018-01-11T13:02:00.813Z,9.86
2018-01-11T13:03:00.568Z,9.82
2018-01-11T13:04:00.568Z,9.79
2018-01-11T13:05:00.810Z,9.73
2018-01-11T13:06:00.804Z,9.79
2018-01-11T13:07:00.825Z,9.74
2018-01-11T13:08:00.814Z,9.76
2018-01-11T13:09:00.790Z,9.74
2018-01-11T13:10:00.788Z,9.77
2018-01-11T13:11:00.572Z,9.77
2018-01-11T13:12:00.781Z,9.77
2018-01-11T13:13:00.777Z,9.82
2018-01-11T13:14:00.282Z,9.83
2018-01-11T13:15:00.772Z,9.87
2018-01-11T13:16:00.765Z,9.89
2018-01-11T13:17:00.763Z,9.89
2018-01-11T13:18:00.762Z,9.86
2018-01-11T13:19:00.754Z,9.86
2018-01-11T13:20:00.760Z,9.84
2018-01-11T13:21:00.745Z,9.8
2018-01-11T13:22:00.756Z,9.8
2018-01-11T13:23:00.230Z,9.86
2018-01-11T13:24:00.730Z,9.91
2018-01-11T13:25:00.228Z,9.86
2018-01-11T13:26:00.482Z,9.87
2018-01-11T13:27:00.729Z,9.91
2018-01-11T13:28:00.466Z,9.86
2018-01-11T13:29:00.461Z,9.94
2018-01-11T13:30:00.465Z,9.91
2018-01-11T13:31:00.461Z,9.84
2018-01-11T13:32:00.196Z,9.91
2018-01-11T13:33:00.440Z,9.87
2018-01-11T13:34:00.749Z,9.87
2018-01-11T13:35:00.447Z,9.97
2018-01-11T13:36:00.431Z,9.86
2018-01-11T13:37:00.693Z,9.91
2018-01-11T13:38:00.446Z,9.94
2018-01-11T13:39:04.129Z,10.02
2018-01-11T13:40:00.445Z,9.99
2018-01-11T13:41:00.425Z,9.98
2018-01-11T13:42:00.161Z,10.04
2018-01-11T13:43:00.658Z,10.09
2018-01-11T13:44:00.662Z,10.12
2018-01-11T13:45:00.738Z,10.1
2018-01-11T13:46:00.647Z,10.04
2018-01-11T13:47:00.644Z,10.07
2018-01-11T13:48:00.635Z,10.1
2018-01-11T13:49:00.643Z,10.01
2018-01-11T13:50:00.636Z,9.98
2018-01-11T13:51:00.392Z,10.01
2018-01-11T13:52:00.379Z,9.86